• Join FlightAware (Why Join?)
  • Login
  • US Flag GB Flag 
16:27 EDT


 

Airport Tracker/Info


-or-


 

Live Flight TrackerFlight Track Log ✈ DAL268 ✈ 28-Apr-2013 ✈ KJFK - LLBG / TLV

Flight Track Log - Related Links

Times and Time Zones

All times are in EDT time to prevent confusion due to time zone crossing. See the DAL268 flight status page for this flight to view local times or setup timezone preferences in your user account.

Time Position Orientation Groundspeed Altitude Reporting Facility
EDT Latitude Longitude Course Direction KTS MPH feet Rate Location/Type
00:00 40.6000 -73.8167 66° East 168 193 1,900  Level New York TRACON
00:01 40.5333 -73.8167 180° South 235 270 2,900 1,980 Climbing New York TRACON
00:03 40.5515 -73.0667 97° East  Level FlightAware Approximate
00:04 40.5731 -72.8909 72° East  Level FlightAware Approximate
00:04 40.5106 -73.6003 98° East 261 300 8,700  Level Boston Center
00:05 40.6263 -72.7210 66° East  Level FlightAware Approximate
00:05 40.5200 -73.4856 84° East 289 333 10,800  Level Boston Center
00:06 40.5317 -73.3519 83° East 331 381 12,100 1,680 Climbing Boston Center
00:07 40.5431 -73.2075 84° East 370 426 14,200 2,100 Climbing Boston Center
00:08 40.5522 -73.0572 85° East 395 455 16,400 1,800 Climbing Boston Center
00:09 40.5864 -72.9019 74° East 418 481 17,800 1,200 Climbing Boston Center
00:10 40.6203 -72.7819 70° East 428 493 18,800 900 Climbing Boston Center
00:11 40.7020 -72.6289 37° Northeast  Level Estimated
00:18 41.5318 -71.8946 42° Northeast  Level FlightAware Approximate
00:19 41.6367 -71.7666 42° Northeast  Level FlightAware Approximate
00:20 41.7413 -71.6382 42° Northeast  Level FlightAware Approximate
00:21 41.8459 -71.5094 43° Northeast  Level FlightAware Approximate
00:22 41.9503 -71.3801 43° Northeast  Level FlightAware Approximate
00:23 42.0546 -71.2505 43° Northeast  Level FlightAware Approximate
00:24 42.1587 -71.1204 43° Northeast  Level FlightAware Approximate
00:25 42.2627 -70.9898 43° Northeast  Level FlightAware Approximate
00:25 42.2000 -70.8833 43° Northeast 500 575 33,000  Level Moncton Center
00:26 42.3665 -70.8589 43° Northeast  Level FlightAware Approximate
00:26 42.3000 -70.7333 48° Northeast 510 587 33,000  Level Moncton Center
00:27 42.4701 -70.7275 43° Northeast  Level FlightAware Approximate
00:27 42.4000 -70.6167 41° Northeast 510 587 33,000  Level Moncton Center
00:28 42.5737 -70.5957 43° Northeast  Level FlightAware Approximate
00:28 42.5167 -70.5000 36° Northeast 510 587 33,000  Level Moncton Center
00:29 42.6769 -70.4632 43° Northeast  Level FlightAware Approximate
00:29 42.6167 -70.3500 48° Northeast 510 587 33,000  Level Moncton Center
00:30 42.7802 -70.3307 43° Northeast  Level FlightAware Approximate
00:30 42.7333 -70.2167 40° Northeast 510 587 33,000  Level Moncton Center
00:31 42.8167 -70.0833 50° Northeast 500 575 33,000  Level Moncton Center
00:32 42.9333 -69.9667 36° Northeast 500 575 33,000  Level Moncton Center
00:33 43.0167 -69.8333 49° Northeast 500 575 33,000  Level Moncton Center
00:34 43.1167 -69.7000 44° Northeast 500 575 33,000  Level Moncton Center
00:35 43.2333 -69.5833 36° Northeast 500 575 33,000  Level Moncton Center
00:36 43.3167 -69.4500 49° Northeast 500 575 33,000  Level Moncton Center
00:37 43.4167 -69.3167 44° Northeast 500 575 33,000 -60 Level Moncton Center
00:38 43.5333 -69.2000 36° Northeast 500 575 32,900  Descending Moncton Center
00:39 43.6167 -69.0667 49° Northeast 500 575 33,000  Climbing Moncton Center
00:40 43.7500 -68.9167 39° Northeast 500 575 33,000  Level Moncton Center
00:41 43.8333 -68.7833 49° Northeast 490 564 33,000  Level Moncton Center
00:42 43.9333 -68.6500 44° Northeast 480 552 33,000  Level Moncton Center
00:43 44.0333 -68.5167 44° Northeast 480 552 33,000  Level Moncton Center
00:44 44.1333 -68.3833 44° Northeast 480 552 33,000  Level Moncton Center
00:45 44.2167 -68.2500 49° Northeast 480 552 33,000  Level Moncton Center
00:46 44.3000 -68.1167 49° Northeast 480 552 33,000  Level Moncton Center
00:47 44.4167 -67.9833 39° Northeast 480 552 33,000  Level Moncton Center
00:48 44.5000 -67.8667 45° Northeast 480 552 33,000  Level Moncton Center
00:49 44.6000 -67.7167 47° Northeast 480 552 33,000  Level Moncton Center
00:50 44.7000 -67.6000 40° Northeast 470 541 33,000  Level Moncton Center
00:51 44.7833 -67.4667 49° Northeast 470 541 33,000  Level Moncton Center
00:52 44.8833 -67.3167 47° Northeast 470 541 33,000  Level Moncton Center
00:53 44.9667 -67.2167 40° Northeast 460 529 33,000  Level Moncton Center
00:54 45.0500 -67.0667 52° Northeast 460 529 33,000  Level Moncton Center
00:55 45.1500 -66.9667 35° Northeast 460 529 33,000  Level Moncton Center
00:56 45.2500 -66.8167 47° Northeast 460 529 33,000  Level Moncton Center
00:57 45.3333 -66.6833 48° Northeast 460 529 33,000  Level Moncton Center
00:58 45.4167 -66.5500 48° Northeast 460 529 33,000  Level Moncton Center
00:59 45.5000 -66.4333 44° Northeast 460 529 33,000  Level Moncton Center
01:00 45.6167 -66.2833 42° Northeast 460 529 33,000  Level Moncton Center
01:01 45.7000 -66.1667 44° Northeast 460 529 33,000  Level Moncton Center
01:02 45.7833 -66.0333 48° Northeast 460 529 33,000  Level Moncton Center
01:03 45.8667 -65.8833 51° Northeast 470 541 33,000  Level Moncton Center
01:04 45.9500 -65.7667 44° Northeast 470 541 33,000  Level Moncton Center
01:05 46.0500 -65.6333 43° Northeast 470 541 33,000  Level Moncton Center
01:06 46.1333 -65.4833 51° Northeast 470 541 33,000  Level Moncton Center
01:07 46.2333 -65.3333 46° Northeast 470 541 33,000  Level Moncton Center
01:08 46.3167 -65.2000 48° Northeast 470 541 33,000  Level Moncton Center
01:09 46.4167 -65.0833 39° Northeast 470 541 33,000  Level Moncton Center
01:10 46.5167 -64.9333 46° Northeast 470 541 33,000  Level Moncton Center
01:11 46.6000 -64.7833 51° Northeast 480 552 33,000  Level Moncton Center
01:12 46.7000 -64.6333 46° Northeast 480 552 33,000  Level Moncton Center
01:13 46.7833 -64.5000 48° Northeast 480 552 33,000  Level Moncton Center
01:14 46.8667 -64.3500 51° Northeast 480 552 33,000  Level Moncton Center
01:15 46.9667 -64.2333 39° Northeast 480 552 33,000  Level Moncton Center
01:16 47.0500 -64.0833 51° Northeast 480 552 33,000  Level Moncton Center
01:17 47.1500 -63.9333 46° Northeast 480 552 33,000  Level Moncton Center
01:18 47.2333 -63.7833 51° Northeast 480 552 33,000  Level Moncton Center
01:19 47.3167 -63.6333 51° Northeast 480 552 33,000  Level Moncton Center
01:20 47.4167 -63.5000 42° Northeast 480 552 33,000  Level Moncton Center
01:21 47.5000 -63.3333 53° Northeast 480 552 33,000  Level Moncton Center
01:22 47.6000 -63.2000 42° Northeast 480 552 33,000  Level Moncton Center
01:23 47.6833 -63.0500 50° Northeast 480 552 33,000  Level Moncton Center
01:24 47.7667 -62.9000 50° Northeast 480 552 33,000  Level Moncton Center
01:25 47.8500 -62.7500 50° Northeast 480 552 33,000  Level Moncton Center
01:26 47.9500 -62.6000 45° Northeast 480 552 33,000  Level Moncton Center
01:26 48.0000 -62.4833 57° Northeast 480 552 33,000  Level Gander Center
01:27 48.1000 -62.3500 42° Northeast 480 552 33,000  Level Gander Center
01:28 48.1167 -62.2833 69° East 480 552 33,000  Level Moncton Center
01:29 48.2167 -62.1667 38° Northeast 480 552 33,000  Level Moncton Center
01:30 48.3000 -62.0000 53° Northeast 480 552 33,000  Level Moncton Center
01:31 48.3667 -61.8500 56° Northeast 490 564 33,000  Level Moncton Center
01:31 48.4500 -61.7333 43° Northeast 480 552 33,000  Level Gander Center
01:32 48.4667 -61.7000 53° Northeast 480 552 33,000  Level Moncton Center
01:33 48.5667 -61.5333 48° Northeast 490 564 33,000  Level Moncton Center
01:33 48.6333 -61.4333 45° Northeast 480 552 33,000  Level Gander Center
01:34 48.6500 -61.3833 63° Northeast 480 552 33,000  Level Moncton Center
01:34 48.7167 -61.2500 53° Northeast 500 575 33,000  Level Gander Center
01:35 48.8000 -61.1000 50° Northeast 490 564 33,000  Level Gander Center
01:36 48.8167 -61.0667 53° Northeast 490 564 33,000  Level Moncton Center
01:37 48.9167 -60.9000 48° Northeast 500 575 33,000  Level Moncton Center
01:37 48.9833 -60.7667 53° Northeast 500 575 33,000  Level Gander Center
01:38 49.0833 -60.6167 44° Northeast 500 575 33,000  Level Gander Center
01:39 49.1000 -60.5833 53° Northeast 500 575 33,000  Level Moncton Center
01:39 49.1667 -60.4667 49° Northeast 500 575 33,000  Level Gander Center
01:40 49.2500 -60.2833 55° Northeast 500 575 33,000  Level Gander Center
01:41 49.2667 -60.2667 33° Northeast 500 575 33,000  Level Moncton Center
01:42 49.3667 -60.0833 50° Northeast 500 575 33,000  Level Moncton Center
01:42 49.4333 -59.9667 49° Northeast 500 575 33,000  Level Gander Center
01:43 49.5167 -59.7833 55° Northeast 500 575 33,000  Level Gander Center
01:44 49.6000 -59.6333 49° Northeast 500 575 33,000  Level Gander Center
01:45 49.6333 -59.5833 44° Northeast 500 575 33,000  Level Moncton Center
01:46 49.7167 -59.4167 52° Northeast 510 587 33,000  Level Moncton Center
01:46 49.7833 -59.2833 52° Northeast 510 587 33,000  Level Gander Center
01:47 49.8833 -59.1000 50° Northeast 510 587 33,000  Level Gander Center
01:48 49.9667 -58.9500 49° Northeast 520 598 33,000  Level Gander Center
01:49 50.0000 -58.8667 58° Northeast 520 598 33,000  Level Moncton Center
01:50 50.0667 -58.7000 58° Northeast 520 598 33,000  Level Moncton Center
01:51 50.1500 -58.5167 55° Northeast 520 598 33,000  Level Moncton Center
01:52 50.2333 -58.3167 57° Northeast 520 598 33,000  Level Moncton Center
01:53 50.3167 -58.1333 55° Northeast 520 598 33,000  Level Moncton Center
01:53 50.3667 -58.0000 60° Northeast 530 610 33,000  Level Gander Center
01:54 50.4667 -57.8167 49° Northeast 530 610 33,000  Level Gander Center
01:55 50.5500 -57.6167 57° Northeast 530 610 33,000  Level Gander Center
01:56 50.6167 -57.4000 64° Northeast 530 610 33,000  Level Gander Center
01:57 50.6333 -57.3667 52° Northeast 530 610 33,000  Level Moncton Center
01:58 50.7333 -57.1667 52° Northeast 540 621 33,000  Level Moncton Center
01:58 50.8000 -57.0167 55° Northeast 530 610 33,000  Level Gander Center
01:59 50.8667 -56.8333 60° Northeast 530 610 33,000  Level Gander Center
02:00 50.9500 -56.6333 56° Northeast 530 610 33,000  Level Gander Center
02:01 50.9833 -56.5000 68° East 530 610 33,000  Level Gander Center
02:02 51.0833 -56.3000 51° Northeast 540 621 33,000  Level Gander Center
02:02 51.1000 -56.2500 62° Northeast 530 610 33,000  Level Gander Center
02:03 51.1833 -56.0167 60° Northeast 530 610 33,000  Level Gander Center
02:04 51.2667 -55.8333 54° Northeast 530 610 33,000  Level Gander Center
02:05 51.3500 -55.6333 56° Northeast 530 610 33,000  Level Gander Center
02:06 51.4333 -55.4333 56° Northeast 530 610 33,000  Level Gander Center
02:07 51.4667 -55.2833 70° East 530 610 33,000  Level Gander Center
02:08 51.5500 -55.1000 54° Northeast 530 610 33,000  Level Gander Center
02:09 51.6333 -54.8833 58° Northeast 530 610 33,000  Level Gander Center
02:09 51.6500 -54.8333 62° Northeast 530 610 33,000  Level Gander Center
02:10 51.7333 -54.6000 60° Northeast 530 610 33,000  Level Gander Center
02:11 51.7833 -54.4667 59° Northeast 540 621 33,000  Level Gander Center
02:12 51.8667 -54.2833 54° Northeast 540 621 33,000  Level Gander Center
02:12 51.8833 -54.2000 72° East 540 621 33,000  Level Gander Center
02:13 51.9333 -54.0667 59° Northeast 550 633 33,000  Level Gander Center
02:13 51.9667 -54.0000 51° Northeast 540 621 33,000  Level Gander Center
02:14 52.0167 -53.8500 62° Northeast 540 621 33,000  Level Gander Center
02:15 52.0833 -53.6500 61° Northeast 540 621 33,000  Level Gander Center
02:15 52.1333 -53.5667 46° Northeast 540 621 33,000  Level Gander Center
02:16 52.2000 -53.3667 61° Northeast 540 621 33,000  Level Gander Center
02:17 52.2333 -53.2167 70° East 530 610 33,000  Level Gander Center
02:18 52.2833 -52.9833 71° East 540 621 33,000  Level Gander Center
02:18 52.3167 -52.9000 57° Northeast 530 610 33,000  Level Gander Center
02:19 52.2167 -53.3667 68° East 525 604 33,000  Level ETMS Enhanced Traffic Management System
02:19 52.3333 -52.7500 68° East 550 633 33,000  Level Gander Center
02:20 52.4000 -52.5167 65° Northeast 540 621 33,000  Level Gander Center
02:21 52.4500 -52.3000 69° East 540 621 33,000  Level Gander Center
02:21 52.4667 -52.2333 68° East 540 621 33,000  Level Gander Center
02:22 52.5333 -51.9667 68° East 540 621 33,000  Level Gander Center
02:25 52.5876 -51.7471 68° East  Level FlightAware Approximate
02:25 52.6667 -51.3667 68° East 290 334 33,000  Level Gander Center
02:26 52.7000 -51.2167 70° East 440 506 33,000  Level Gander Center
02:27 52.7333 -50.9833 77° East 530 610 33,000  Level Gander Center
02:28 52.8167 -50.7500 59° Northeast 540 621 33,000  Level Gander Center
02:29 52.8500 -50.5167 77° East 540 621 33,000  Level Gander Center
02:31 52.9547 -50.1573 64° Northeast  Level FlightAware Approximate
02:33 53.0000 -50.0000 76° East 542 624 33,000  Level ETMS Enhanced Traffic Management System
02:38 53.1919 -48.5580 77° East  Level FlightAware Approximate
02:39 53.2347 -48.2868 78° East 542 624 33,000  Level FlightAware Transoceanic
02:40 53.2662 -48.0406 78° East 542 624 33,000  Level FlightAware Transoceanic
02:41 53.2972 -47.7940 78° East 542 624 33,000  Level FlightAware Transoceanic
02:42 53.3277 -47.5471 78° East 542 624 33,000  Level FlightAware Transoceanic
02:43 53.3577 -47.2998 79° East 542 624 33,000  Level FlightAware Transoceanic
02:44 53.3872 -47.0521 79° East 542 624 33,000  Level FlightAware Transoceanic
02:45 53.4161 -46.8041 79° East 542 624 33,000  Level FlightAware Transoceanic
02:46 53.4446 -46.5558 79° East 542 624 33,000  Level FlightAware Transoceanic
02:47 53.4725 -46.3071 79° East 542 624 33,000  Level FlightAware Transoceanic
02:48 53.4999 -46.0582 80° East 542 624 33,000  Level FlightAware Transoceanic
02:49 53.5268 -45.8089 80° East 542 624 33,000  Level FlightAware Transoceanic
02:50 53.5532 -45.5593 80° East 542 624 33,000  Level FlightAware Transoceanic
02:51 53.5790 -45.3093 80° East 542 624 33,000  Level FlightAware Transoceanic
02:52 53.6044 -45.0591 80° East 542 624 33,000  Level FlightAware Transoceanic
02:53 53.6292 -44.8086 81° East 542 624 33,000  Level FlightAware Transoceanic
02:54 53.6535 -44.5578 81° East 542 624 33,000  Level FlightAware Transoceanic
02:55 53.6772 -44.3067 81° East 542 624 33,000  Level FlightAware Transoceanic
02:56 53.7005 -44.0553 81° East 542 624 33,000  Level FlightAware Transoceanic
02:57 53.7232 -43.8037 81° East 542 624 33,000  Level FlightAware Transoceanic
02:58 53.7454 -43.5518 82° East 542 624 33,000  Level FlightAware Transoceanic
02:59 53.7670 -43.2996 82° East 542 624 33,000  Level FlightAware Transoceanic
03:00 53.7882 -43.0471 82° East 542 624 33,000  Level FlightAware Transoceanic
03:01 53.8087 -42.7944 82° East 542 624 33,000  Level FlightAware Transoceanic
03:02 53.8288 -42.5415 82° East 542 624 33,000  Level FlightAware Transoceanic
03:03 53.8483 -42.2883 83° East 542 624 33,000  Level FlightAware Transoceanic
03:04 53.8673 -42.0349 83° East 542 624 33,000  Level FlightAware Transoceanic
03:05 53.8858 -41.7813 83° East 542 624 33,000  Level FlightAware Transoceanic
03:06 53.9037 -41.5274 83° East 542 624 33,000  Level FlightAware Transoceanic
03:07 53.9211 -41.2734 83° East 542 624 33,000  Level FlightAware Transoceanic
03:08 53.9380 -41.0191 84° East 542 624 33,000  Level FlightAware Transoceanic
03:09 53.9543 -40.7646 84° East 542 624 33,000  Level FlightAware Transoceanic
03:10 53.9701 -40.5099 84° East 542 624 33,000  Level FlightAware Transoceanic
03:11 53.9853 -40.2551 84° East 542 624 33,000  Level FlightAware Transoceanic
03:12 53.9991 -40.0154 84° East  Level FlightAware Approximate
03:13 54.0125 -39.7755 84° East  Level FlightAware Approximate
03:14 54.0290 -39.7958 76° East  Level FlightAware Approximate
03:15 54.0619 -39.5612 76° East  Level FlightAware Approximate
03:15 54.0000 -40.0000 76° East 543 625 33,000  Level ETMS Enhanced Traffic Management System
03:16 54.0943 -39.3263 77° East  Level FlightAware Approximate
03:17 54.1263 -39.0910 77° East  Level FlightAware Approximate
03:18 54.1577 -38.8553 77° East  Level FlightAware Approximate
03:19 54.1888 -38.6193 77° East  Level FlightAware Approximate
03:20 54.2193 -38.3829 77° East  Level FlightAware Approximate
03:21 54.3035 -37.7387 78° East 543 625 33,000  Level FlightAware Transoceanic
03:22 54.3345 -37.4854 78° East 543 625 33,000  Level FlightAware Transoceanic
03:23 54.3651 -37.2318 78° East 543 625 33,000  Level FlightAware Transoceanic
03:24 54.3951 -36.9778 79° East 543 625 33,000  Level FlightAware Transoceanic
03:25 54.4246 -36.7234 79° East 543 625 33,000  Level FlightAware Transoceanic
03:26 54.4536 -36.4686 79° East 543 625 33,000  Level FlightAware Transoceanic
03:27 54.4820 -36.2135 79° East 543 625 33,000  Level FlightAware Transoceanic
03:28 54.5099 -35.9581 79° East 543 625 33,000  Level FlightAware Transoceanic
03:29 54.5372 -35.7023 80° East 543 625 33,000  Level FlightAware Transoceanic
03:30 54.5640 -35.4462 80° East 543 625 33,000  Level FlightAware Transoceanic
03:31 54.5903 -35.1897 80° East 543 625 33,000  Level FlightAware Transoceanic
03:32 54.6160 -34.9329 80° East 543 625 33,000  Level FlightAware Transoceanic
03:33 54.6412 -34.6758 81° East 543 625 33,000  Level FlightAware Transoceanic
03:34 54.6658 -34.4183 81° East 543 625 33,000  Level FlightAware Transoceanic
03:35 54.6899 -34.1606 81° East 543 625 33,000  Level FlightAware Transoceanic
03:36 54.7134 -33.9025 81° East 543 625 33,000  Level FlightAware Transoceanic
03:37 54.7364 -33.6442 81° East 543 625 33,000  Level FlightAware Transoceanic
03:38 54.7588 -33.3856 82° East 543 625 33,000  Level FlightAware Transoceanic
03:39 54.7807 -33.1267 82° East 543 625 33,000  Level FlightAware Transoceanic
03:40 54.8020 -32.8675 82° East 543 625 33,000  Level FlightAware Transoceanic
03:41 54.8228 -32.6080 82° East 543 625 33,000  Level FlightAware Transoceanic
03:42 54.8430 -32.3483 82° East 543 625 33,000  Level FlightAware Transoceanic
03:43 54.8627 -32.0883 83° East 543 625 33,000  Level FlightAware Transoceanic
03:44 54.8818 -31.8281 83° East 543 625 33,000  Level FlightAware Transoceanic
03:45 54.9004 -31.5676 83° East 543 625 33,000  Level FlightAware Transoceanic
03:46 54.9184 -31.3069 83° East 543 625 33,000  Level FlightAware Transoceanic
03:47 54.9358 -31.0459 83° East 543 625 33,000  Level FlightAware Transoceanic
03:48 54.9527 -30.7848 84° East 543 625 33,000  Level FlightAware Transoceanic
03:49 54.9690 -30.5234 84° East 543 625 33,000  Level FlightAware Transoceanic
03:50 54.9848 -30.2618 84° East 543 625 33,000  Level FlightAware Transoceanic
03:51 54.9991 -30.0162 84° East  Level FlightAware Approximate
03:52 55.0129 -29.7705 84° East  Level FlightAware Approximate
03:53 54.9872 -29.7869 96° East  Level FlightAware Approximate
03:53 55.0000 -30.0000 96° East 543 625 33,000  Level ETMS Enhanced Traffic Management System
03:54 54.9721 -29.5416 96° East  Level FlightAware Approximate
03:55 54.9564 -29.2965 96° East  Level FlightAware Approximate
03:56 54.9403 -29.0516 96° East  Level FlightAware Approximate
03:57 54.9236 -28.8069 97° East  Level FlightAware Approximate
03:58 54.9065 -28.5623 97° East  Level FlightAware Approximate
03:59 54.8627 -27.9117 97° East 543 625 33,000  Level FlightAware Transoceanic
04:00 54.8430 -27.6517 98° East 543 625 33,000  Level FlightAware Transoceanic
04:01 54.8228 -27.3920 98° East 543 625 33,000  Level FlightAware Transoceanic
04:02 54.8020 -27.1325 98° East 543 625 33,000  Level FlightAware Transoceanic
04:03 54.7807 -26.8733 98° East 543 625 33,000  Level FlightAware Transoceanic
04:04 54.7588 -26.6144 98° East 543 625 33,000  Level FlightAware Transoceanic
04:05 54.7364 -26.3558 99° East 543 625 33,000  Level FlightAware Transoceanic
04:06 54.7134 -26.0975 99° East 543 625 33,000  Level FlightAware Transoceanic
04:07 54.6899 -25.8394 99° East 543 625 33,000  Level FlightAware Transoceanic
04:08 54.6658 -25.5817 99° East 543 625 33,000  Level FlightAware Transoceanic
04:09 54.6412 -25.3242 99° East 543 625 33,000  Level FlightAware Transoceanic
04:10 54.6160 -25.0671 100° East 543 625 33,000  Level FlightAware Transoceanic
04:11 54.5903 -24.8103 100° East 543 625 33,000  Level FlightAware Transoceanic
04:12 54.5640 -24.5538 100° East 543 625 33,000  Level FlightAware Transoceanic
04:13 54.5372 -24.2977 100° East 543 625 33,000  Level FlightAware Transoceanic
04:14 54.5099 -24.0419 101° East 543 625 33,000  Level FlightAware Transoceanic
04:15 54.4820 -23.7865 101° East 543 625 33,000  Level FlightAware Transoceanic
04:16 54.4536 -23.5314 101° East 543 625 33,000  Level FlightAware Transoceanic
04:17 54.4246 -23.2766 101° East 543 625 33,000  Level FlightAware Transoceanic
04:18 54.3951 -23.0222 101° East 543 625 33,000  Level FlightAware Transoceanic
04:19 54.3651 -22.7682 102° East 543 625 33,000  Level FlightAware Transoceanic
04:20 54.3345 -22.5146 102° East 543 625 33,000  Level FlightAware Transoceanic
04:21 54.3035 -22.2613 102° East 543 625 33,000  Level FlightAware Transoceanic
04:22 54.2718 -22.0085 102° East 543 625 33,000  Level FlightAware Transoceanic
04:23 54.2397 -21.7560 102° East 543 625 33,000  Level FlightAware Transoceanic
04:24 54.2070 -21.5039 103° East 543 625 33,000  Level FlightAware Transoceanic
04:25 54.1738 -21.2522 103° East 543 625 33,000  Level FlightAware Transoceanic
04:26 54.1401 -21.0009 103° East 543 625 33,000  Level FlightAware Transoceanic
04:27 54.1059 -20.7501 103° East 543 625 33,000  Level FlightAware Transoceanic
04:28 54.0711 -20.4996 103° East 543 625 33,000  Level FlightAware Transoceanic
04:29 54.0358 -20.2496 104° East 543 625 33,000  Level FlightAware Transoceanic
04:30 54.0022 -20.0155 104° East  Level FlightAware Approximate
04:31 53.9682 -19.7817 104° East  Level FlightAware Approximate
04:32 53.9856 -19.7924 97° East  Level FlightAware Approximate
04:33 53.9686 -19.5534 97° East  Level FlightAware Approximate
04:34 53.9511 -19.3146 97° East  Level FlightAware Approximate
04:35 53.9332 -19.0760 97° East  Level FlightAware Approximate
04:36 53.9151 -18.8417 97° East  Level FlightAware Approximate
04:37 53.8965 -18.6075 98° East  Level FlightAware Approximate
04:38 53.8774 -18.3736 98° East  Level FlightAware Approximate
04:39 53.8580 -18.1399 98° East  Level FlightAware Approximate
04:40 53.8380 -17.9064 98° East  Level FlightAware Approximate
04:41 53.8176 -17.6732 98° East  Level FlightAware Approximate
04:42 53.7968 -17.4401 99° East  Level FlightAware Approximate
04:43 53.7755 -17.2073 99° East  Level FlightAware Approximate
04:44 53.7538 -16.9748 99° East  Level FlightAware Approximate
04:45 53.7316 -16.7425 99° East  Level FlightAware Approximate
04:46 53.7090 -16.5104 99° East  Level FlightAware Approximate
04:47 53.6859 -16.2786 99° East  Level FlightAware Approximate
04:48 53.6623 -16.0470 100° East  Level FlightAware Approximate
04:49 53.6384 -15.8157 100° East  Level FlightAware Approximate
04:50 53.6139 -15.5847 100° East  Level FlightAware Approximate
04:51 53.5891 -15.3539 100° East  Level FlightAware Approximate
04:52 53.5638 -15.1234 100° East  Level FlightAware Approximate
04:53 53.5379 -14.8936 101° East  Level FlightAware Approximate
04:54 53.5116 -14.6641 101° East  Level FlightAware Approximate
04:55 53.4849 -14.4349 101° East  Level FlightAware Approximate
04:56 53.4576 -14.2060 101° East  Level FlightAware Approximate
04:57 53.4300 -13.9773 101° East  Level FlightAware Approximate
04:58 53.4019 -13.7490 102° East  Level FlightAware Approximate
04:59 53.3736 -13.5209 102° East  Level FlightAware Approximate
05:00 53.3452 -13.2930 102° East  Level FlightAware Approximate
05:01 53.3164 -13.0654 102° East  Level FlightAware Approximate
05:02 53.2872 -12.8381 102° East  Level FlightAware Approximate
05:03 53.2575 -12.6111 102° East  Level FlightAware Approximate
05:04 53.2274 -12.3844 102° East  Level FlightAware Approximate
05:05 53.1968 -12.1581 103° East  Level FlightAware Approximate
05:06 53.1659 -11.9321 103° East  Level FlightAware Approximate
05:07 53.1345 -11.7064 103° East  Level FlightAware Approximate
05:08 53.1027 -11.4810 103° East  Level FlightAware Approximate
05:09 53.0704 -11.2560 103° East  Level FlightAware Approximate
05:10 53.0378 -11.0313 104° East  Level FlightAware Approximate
05:11 53.0047 -10.8069 104° East  Level FlightAware Approximate
05:12 52.9711 -10.5829 104° East  Level FlightAware Approximate
05:13 52.9372 -10.3593 104° East  Level FlightAware Approximate
05:14 52.9029 -10.1360 104° East  Level FlightAware Approximate
05:15 52.8681 -9.9131 104° East  Level FlightAware Approximate
05:15 52.5107 -8.9585 104° East 484 557 33,500  Level FlightAware UK
05:15 52.5025 -8.8846 100° East 484 557 33,500  Level FlightAware UK
05:16 52.4943 -8.8117 100° East 484 557 33,500  Level FlightAware UK
05:16 52.4831 -8.7140 101° East 484 557 33,500  Level FlightAware UK
05:16 52.4745 -8.6404 101° East 484 557 33,500  Level FlightAware UK
05:17 52.4661 -8.5668 101° East 484 557 33,500  Level FlightAware UK
05:17 52.4575 -8.4933 101° East 484 557 33,500  Level FlightAware UK
05:17 52.4487 -8.4198 101° East 484 557 33,500  Level FlightAware UK
05:18 52.4398 -8.3462 101° East 484 557 33,500  Level FlightAware UK
05:18 52.4309 -8.2717 101° East 484 557 33,500  Level FlightAware UK
05:18 52.4220 -8.1981 101° East 484 557 33,500  Level FlightAware UK
05:19 52.4131 -8.1246 101° East 486 559 33,500  Level FlightAware UK
05:19 52.4043 -8.0507 101° East 488 562 33,500  Level FlightAware UK
05:19 52.3954 -7.9770 101° East 488 562 33,500  Level FlightAware UK
05:19 52.3862 -7.9034 102° East 488 562 33,500  Level FlightAware UK
05:20 52.3739 -7.8056 102° East 486 559 33,500  Level FlightAware UK
05:20 52.3647 -7.7322 102° East 488 562 33,500  Level FlightAware UK
05:20 52.3589 -7.6567 97° East 488 562 33,500  Level FlightAware UK
05:21 52.3536 -7.5824 97° East 488 562 33,500  Level FlightAware UK
05:21 52.3487 -7.5079 96° East 488 562 33,500  Level FlightAware UK
05:21 52.3436 -7.4335 96° East 488 562 33,500  Level FlightAware UK
05:22 52.3384 -7.3594 97° East 488 562 33,500  Level FlightAware UK
05:22 52.3333 -7.2851 96° East 486 559 33,500  Level FlightAware UK
05:22 52.3282 -7.2107 96° East 488 562 33,500  Level FlightAware UK
05:23 52.3230 -7.1355 96° East 488 562 33,500  Level FlightAware UK
05:23 52.3178 -7.0610 96° East 488 562 33,500  Level FlightAware UK
05:23 52.3129 -6.9864 96° East 488 562 33,500  Level FlightAware UK
05:23 52.3079 -6.9118 96° East 488 562 33,500  Level FlightAware UK
05:24 52.3027 -6.8374 97° East 488 562 33,500  Level FlightAware UK
05:24 52.2973 -6.7629 97° East 490 564 33,500  Level FlightAware UK
05:24 52.2919 -6.6884 97° East 488 562 33,500  Level FlightAware UK
05:25 52.2865 -6.6139 97° East 488 562 33,500  Level FlightAware UK
05:25 52.2811 -6.5391 97° East 488 562 33,500  Level FlightAware UK
05:25 52.2757 -6.4644 97° East 488 562 33,500  Level FlightAware UK
05:26 52.2704 -6.3896 97° East 490 564 33,500  Level FlightAware UK
05:26 52.2647 -6.3148 97° East 488 562 33,500  Level FlightAware UK
05:26 52.2586 -6.2402 97° East 486 559 33,500  Level FlightAware UK
05:26 52.2492 -6.1660 102° East 486 559 33,500  Level FlightAware UK
05:27 52.2404 -6.0915 101° East 486 559 33,500  Level FlightAware UK
05:27 52.2319 -6.0172 101° East 490 564 33,500  Level FlightAware UK
05:27 52.2232 -5.9422 101° East 490 564 33,500  Level FlightAware UK
05:28 52.2146 -5.8681 101° East 490 564 33,500  Level FlightAware UK
05:28 52.2058 -5.7941 101° East 488 562 33,500  Level FlightAware UK
05:28 52.1967 -5.7202 101° East 490 564 33,500  Level FlightAware UK
05:29 52.1877 -5.6461 101° East 492 566 33,500  Level FlightAware UK
05:29 52.1751 -5.5730 106° East 494 568 33,500  Level FlightAware UK
05:29 52.1545 -5.4512 105° East 492 566 33,500  Level FlightAware UK
05:30 52.1223 -5.2571 105° East 492 566 33,500  Level FlightAware UK
05:30 52.1099 -5.1835 105° East 494 568 33,500  Level FlightAware UK
05:31 52.0858 -5.0383 105° East 494 568 33,500  Level FlightAware UK
05:31 52.0736 -4.9660 105° East 494 568 33,500  Level FlightAware UK
05:32 52.0530 -4.8457 105° East 492 566 33,500  Level FlightAware UK
05:32 52.0368 -4.7496 105° East 494 568 33,500  Level FlightAware UK
05:33 52.0108 -4.6328 110° East 492 566 33,500  Level FlightAware UK
05:34 51.9543 -4.3759 110° East 490 564 33,500  Level FlightAware UK
05:34 51.9384 -4.3050 110° East 490 564 33,500  Level FlightAware UK
05:34 51.9231 -4.2352 110° East 488 562 33,500  Level FlightAware UK
05:35 51.9030 -4.1421 109° East 488 562 33,500  Level FlightAware UK
05:35 51.8780 -4.0256 109° East 486 559 33,500  Level FlightAware UK
05:36 51.8582 -3.9322 109° East 488 562 33,500  Level FlightAware UK
05:36 51.8227 -3.7683 109° East 488 562 33,500  Level FlightAware UK
05:37 51.8025 -3.6759 109° East 488 562 33,500  Level FlightAware UK
05:37 51.7873 -3.6052 109° East 488 562 33,500  Level FlightAware UK
05:37 51.7724 -3.5353 109° East 488 562 33,500  Level FlightAware UK
05:38 51.7576 -3.4652 109° East 488 562 33,500  Level FlightAware UK
05:38 51.7280 -3.3252 109° East 486 559 33,500  Level FlightAware UK
05:39 51.7133 -3.2552 109° East 484 557 33,500  Level FlightAware UK
05:39 51.6932 -3.1622 109° East 486 559 33,500  Level FlightAware UK
05:39 51.6723 -3.0687 110° East 488 562 33,500  Level FlightAware UK
05:40 51.6569 -2.9989 110° East 490 564 33,500  Level FlightAware UK
05:40 51.6367 -2.9050 109° East 494 568 33,500  Level FlightAware UK
05:41 51.6065 -2.7657 109° East 492 566 33,500  Level FlightAware UK
05:41 51.5860 -2.6734 110° East 492 566 33,500  Level FlightAware UK
05:41 51.5705 -2.6034 110° East 494 568 33,500  Level FlightAware UK
05:42 51.5555 -2.5342 109° East 492 566 33,500  Level FlightAware UK
05:42 51.5462 -2.4627 102° East 492 566 33,500  Level FlightAware UK
05:43 51.5295 -2.3179 100° East 494 568 33,500  Level FlightAware UK
05:43 51.5187 -2.2222 100° East 492 566 33,500  Level FlightAware UK
05:44 51.4960 -2.0304 101° East 490 564 33,500  Level FlightAware UK
05:44 51.4876 -1.9589 101° East 492 566 33,500  Level FlightAware UK
05:45 51.4744 -1.8148 98° East 492 566 33,500  Level FlightAware UK
05:45 51.4684 -1.7418 97° East 490 564 33,500  Level FlightAware UK
05:45 51.4628 -1.6697 97° East 490 564 33,500  Level FlightAware UK
05:46 51.4511 -1.4759 95° East 490 564 33,500  Level FlightAware UK
05:46 51.4466 -1.4035 96° East 488 562 33,500  Level FlightAware UK
05:47 51.4354 -1.2348 96° East 490 564 33,500  Level FlightAware UK
05:47 51.4303 -1.1618 96° East 492 566 33,500  Level FlightAware UK
05:48 51.4250 -1.0896 97° East 492 566 33,500  Level FlightAware UK
05:48 51.4179 -0.9933 97° East 490 564 33,500  Level FlightAware UK
05:49 51.4107 -0.8963 97° East 490 564 33,500  Level FlightAware UK
05:49 51.4034 -0.8010 97° East 490 564 33,500  Level FlightAware UK
05:50 51.3887 -0.6071 97° East 490 564 33,500  Level FlightAware UK
05:51 51.3700 -0.3664 97° East 486 559 33,500  Level FlightAware UK
05:51 51.3624 -0.2701 97° East 488 562 33,500  Level FlightAware UK
05:52 51.3530 -0.1501 97° East 490 564 33,500  Level FlightAware UK
05:52 51.3431 -0.0290 97° East 490 564 33,500  Level FlightAware UK
05:52 51.3374 0.0426 97° East 490 564 33,500  Level FlightAware UK
05:53 51.3313 0.1165 97° East 490 564 33,500  Level FlightAware UK
05:53 51.3254 0.1889 97° East 492 566 33,500  Level FlightAware UK
05:53 51.3194 0.2611 98° East 492 566 33,500  Level FlightAware UK
05:54 51.3134 0.3332 98° East 490 564 33,500  Level FlightAware UK
05:54 51.3073 0.4053 98° East 490 564 33,500  Level FlightAware UK
05:55 51.2929 0.5735 98° East 490 564 33,500  Level FlightAware UK
05:55 51.2845 0.6704 98° East 486 559 33,500  Level FlightAware UK
05:56 51.2740 0.7904 98° East 486 559 33,500  Level FlightAware UK
05:56 51.2655 0.8873 98° East 488 562 33,500  Level FlightAware UK
05:56 51.2546 1.0076 98° East 490 564 33,500  Level FlightAware UK
05:57 51.2415 1.1518 98° East 492 566 33,500  Level FlightAware UK
05:57 51.2349 1.2247 98° East 492 566 33,500  Level FlightAware UK
05:58 51.2283 1.2967 98° East 490 564 33,500  Level FlightAware UK
05:58 51.2216 1.3694 98° East 492 566 33,500  Level FlightAware UK
05:58 51.2140 1.4407 100° East 488 562 33,500  Level FlightAware UK
05:59 51.2039 1.5107 103° East 488 562 33,500  Level FlightAware UK
05:59 51.1837 1.6516 103° East 492 566 33,500  Level FlightAware UK
06:00 51.1488 1.8838 103° East 492 566 33,500  Level FlightAware UK
06:00 51.1379 1.9543 104° East 492 566 33,500  Level FlightAware UK
06:01 51.1236 2.0470 104° East 490 564 33,500  Level FlightAware UK
06:01 51.1131 2.1167 103° East 488 562 33,500  Level FlightAware UK
06:02 51.0988 2.2092 104° East 488 562 33,500  Level FlightAware UK
06:02 51.0770 2.3485 104° East 488 562 33,500  Level FlightAware UK
06:02 51.0661 2.4177 104° East 488 562 33,500  Level FlightAware UK
06:03 51.0516 2.5099 104° East 488 562 33,500  Level FlightAware UK
06:03 51.0407 2.5789 104° East 488 562 33,500  Level FlightAware UK
06:03 51.0299 2.6480 104° East 488 562 33,500  Level FlightAware UK
06:04 51.0118 2.7630 104° East 490 564 33,500  Level FlightAware UK
06:06 50.9496 3.1486 104° East 484 557 33,500  Level FlightAware UK
06:06 50.9384 3.2168 105° East 486 559 33,500  Level FlightAware UK
06:06 50.9273 3.2839 105° East 488 562 33,500  Level FlightAware UK
06:07 50.9161 3.3509 105° East 484 557 33,500  Level FlightAware UK
06:08 50.8792 3.5741 105° East 482 555 33,500  Level FlightAware UK
06:09 50.8186 3.9293 105° East 484 557 33,500  Level FlightAware UK
06:10 50.7840 4.1293 105° East 484 557 33,500 540 Level FlightAware UK
06:11 50.7527 4.3077 105° East 478 550 34,500 1,080 Climbing FlightAware UK
06:12 50.7184 4.4844 107° East 488 562 35,300 960 Climbing FlightAware UK
06:14 50.6050 4.8154 118° Southeast  Level Estimated
06:21 50.1331 6.1488 119° Southeast  Level Estimated
06:22 50.0644 6.3371 120° Southeast  Level Estimated
06:23 49.9955 6.5249 120° Southeast  Level Estimated
06:24 49.9262 6.7122 120° Southeast  Level Estimated
06:25 49.8567 6.8988 120° Southeast  Level Estimated
06:26 49.7868 7.0850 120° Southeast  Level Estimated
06:27 49.7166 7.2706 120° Southeast  Level Estimated
06:28 49.6462 7.4557 120° Southeast  Level Estimated
06:29 49.5754 7.6403 121° Southeast  Level Estimated
06:30 49.5044 7.8243 121° Southeast  Level Estimated
06:31 49.4331 8.0078 121° Southeast  Level Estimated
06:32 49.3615 8.1907 121° Southeast  Level Estimated
06:33 49.2895 8.3731 121° Southeast  Level Estimated
06:34 49.2174 8.5550 121° Southeast  Level Estimated
06:35 49.1449 8.7364 121° Southeast  Level Estimated
06:36 49.0721 8.9172 122° Southeast  Level Estimated
06:37 48.9991 9.0975 122° Southeast  Level Estimated
06:38 48.9258 9.2773 122° Southeast  Level Estimated
06:39 48.8521 9.4565 122° Southeast  Level Estimated
06:40 48.7783 9.6352 122° Southeast  Level Estimated
06:41 48.7041 9.8134 122° Southeast  Level Estimated
06:42 48.6297 9.9910 122° Southeast  Level Estimated
06:43 48.5550 10.1682 122° Southeast  Level Estimated
06:44 48.4800 10.3448 123° Southeast  Level Estimated
06:45 48.4048 10.5209 123° Southeast  Level Estimated
06:46 48.3293 10.6964 123° Southeast  Level Estimated
06:47 48.2535 10.8715 123° Southeast  Level Estimated
06:48 48.1774 11.0460 123° Southeast  Level Estimated
06:49 48.1012 11.2200 123° Southeast  Level Estimated
06:50 48.0246 11.3935 123° Southeast  Level Estimated
06:51 47.9478 11.5665 124° Southeast  Level Estimated
06:52 47.8707 11.7390 124° Southeast  Level Estimated
06:53 47.7933 11.9109 124° Southeast  Level Estimated
06:54 47.7157 12.0823 124° Southeast  Level Estimated
06:55 47.6379 12.2533 124° Southeast  Level Estimated
06:56 47.5598 12.4237 124° Southeast  Level Estimated
06:57 47.4814 12.5936 124° Southeast  Level Estimated
06:58 47.4028 12.7630 124° Southeast  Level Estimated
06:59 47.3239 12.9319 125° Southeast  Level Estimated
07:00 47.2448 13.1003 125° Southeast  Level Estimated
07:01 47.1655 13.2682 125° Southeast  Level Estimated
07:02 47.0859 13.4356 125° Southeast  Level Estimated
07:03 47.0060 13.6025 125° Southeast  Level Estimated
07:04 46.9260 13.7689 125° Southeast  Level Estimated
07:05 46.8456 13.9347 125° Southeast  Level Estimated
07:06 46.7651 14.1001 125° Southeast  Level Estimated
07:07 46.6843 14.2650 125° Southeast  Level Estimated
07:08 46.6032 14.4295 126° Southeast  Level Estimated
07:09 46.5220 14.5934 126° Southeast  Level Estimated
07:10 46.4405 14.7568 126° Southeast  Level Estimated
07:11 46.3587 14.9197 126° Southeast  Level Estimated
07:12 46.2768 15.0822 126° Southeast  Level Estimated
07:13 46.1946 15.2441 126° Southeast  Level Estimated
07:14 46.1122 15.4056 126° Southeast  Level Estimated
07:15 46.0295 15.5666 126° Southeast  Level Estimated
07:16 45.9467 15.7271 127° Southeast  Level Estimated
07:17 45.8636 15.8872 127° Southeast  Level Estimated
07:18 45.7802 16.0467 127° Southeast  Level Estimated
07:19 45.6967 16.2058 127° Southeast  Level Estimated
07:20 45.6129 16.3644 127° Southeast  Level Estimated
07:21 45.5290 16.5225 127° Southeast  Level Estimated
07:22 45.4448 16.6802 127° Southeast  Level Estimated
07:23 45.3604 16.8374 127° Southeast  Level Estimated
07:24 45.2757 16.9941 127° Southeast  Level Estimated
07:25 45.1909 17.1504 128° Southeast  Level Estimated
07:26 45.1058 17.3061 128° Southeast  Level Estimated
07:27 45.0205 17.4615 128° Southeast  Level Estimated
07:28 44.9351 17.6163 128° Southeast  Level Estimated
07:29 44.8494 17.7707 128° Southeast  Level Estimated
07:30 44.7638 17.9242 128° Southeast  Level Estimated
07:31 44.6780 18.0771 128° Southeast  Level Estimated
07:32 44.5919 18.2297 128° Southeast  Level Estimated
07:33 44.5057 18.3817 128° Southeast  Level Estimated
07:34 44.4193 18.5333 129° Southeast  Level Estimated
07:35 44.3327 18.6845 129° Southeast  Level Estimated
07:36 44.2459 18.8353 129° Southeast  Level Estimated
07:37 44.1588 18.9855 129° Southeast  Level Estimated
07:38 44.0716 19.1354 129° Southeast  Level Estimated
07:39 43.9842 19.2848 129° Southeast  Level Estimated
07:40 43.8966 19.4337 129° Southeast  Level Estimated
07:41 43.8088 19.5823 129° Southeast  Level Estimated
07:42 43.7208 19.7304 129° Southeast  Level Estimated
07:43 43.6326 19.8780 129° Southeast  Level Estimated
07:44 43.5443 20.0252 130° Southeast  Level Estimated
07:45 43.4557 20.1720 130° Southeast  Level Estimated
07:46 43.3670 20.3184 130° Southeast  Level Estimated
07:47 43.2780 20.4643 130° Southeast  Level Estimated
07:48 43.1889 20.6098 130° Southeast  Level Estimated
07:49 43.0996 20.7549 130° Southeast  Level Estimated
07:50 43.0102 20.8995 130° Southeast  Level Estimated
07:51 42.9205 21.0438 130° Southeast  Level Estimated
07:52 42.8307 21.1876 130° Southeast  Level Estimated
07:53 42.7406 21.3310 130° Southeast  Level Estimated
07:54 42.6504 21.4739 131° Southeast  Level Estimated
07:55 42.5601 21.6165 131° Southeast  Level Estimated
07:56 42.4695 21.7587 131° Southeast  Level Estimated
07:57 42.3788 21.9004 131° Southeast  Level Estimated
07:58 42.2879 22.0417 131° Southeast  Level Estimated
07:59 42.1968 22.1826 131° Southeast  Level Estimated
08:00 42.1055 22.3232 131° Southeast  Level Estimated
08:01 42.0141 22.4633 131° Southeast  Level Estimated
08:02 41.9225 22.6030 131° Southeast  Level Estimated
08:03 41.8308 22.7423 131° Southeast  Level Estimated
08:04 41.7388 22.8812 132° Southeast  Level Estimated
08:05 41.6467 23.0197 132° Southeast  Level Estimated
08:06 41.5545 23.1578 132° Southeast  Level Estimated
08:07 41.4621 23.2956 132° Southeast  Level Estimated
08:08 41.3695 23.4329 132° Southeast  Level Estimated
08:09 41.2767 23.5698 132° Southeast  Level Estimated
08:10 41.1838 23.7064 132° Southeast  Level Estimated
08:11 41.0907 23.8425 132° Southeast  Level Estimated
08:12 40.9975 23.9783 132° Southeast  Level Estimated
08:13 40.9041 24.1137 132° Southeast  Level Estimated
08:14 40.8106 24.2487 132° Southeast  Level Estimated
08:15 40.7169 24.3834 133° Southeast  Level Estimated
08:16 40.6230 24.5176 133° Southeast  Level Estimated
08:17 40.5290 24.6515 133° Southeast  Level Estimated
08:18 40.4348 24.7850 133° Southeast  Level Estimated
08:19 40.3405 24.9181 133° Southeast  Level Estimated
08:20 40.2460 25.0509 133° Southeast  Level Estimated
08:21 40.1514 25.1833 133° Southeast  Level Estimated
08:22 40.0566 25.3153 133° Southeast  Level Estimated
08:23 39.9617 25.4469 133° Southeast  Level Estimated
08:24 39.8666 25.5782 133° Southeast  Level Estimated
08:25 39.7714 25.7091 133° Southeast  Level Estimated
08:26 39.6760 25.8397 133° Southeast  Level Estimated
08:27 39.5805 25.9699 134° Southeast  Level Estimated
08:28 39.4848 26.0997 134° Southeast  Level Estimated
08:29 39.3890 26.2292 134° Southeast  Level Estimated
08:30 39.2930 26.3583 134° Southeast  Level Estimated
08:31 39.1970 26.4871 134° Southeast  Level Estimated
08:32 39.1007 26.6155 134° Southeast  Level Estimated
08:33 39.0044 26.7436 134° Southeast  Level Estimated
08:34 38.9078 26.8713 134° Southeast  Level Estimated
08:35 38.8112 26.9987 134° Southeast  Level Estimated
08:36 38.7144 27.1257 134° Southeast  Level Estimated
08:37 38.6175 27.2524 134° Southeast  Level Estimated
08:38 38.5204 27.3788 134° Southeast  Level Estimated
08:39 38.4232 27.5048 135° Southeast  Level Estimated
08:40 38.3259 27.6304 135° Southeast  Level Estimated
08:41 38.2284 27.7558 135° Southeast  Level Estimated
08:42 38.1308 27.8807 135° Southeast  Level Estimated
08:43 38.0331 28.0054 135° Southeast  Level Estimated
08:44 37.9352 28.1297 135° Southeast  Level Estimated
08:45 37.8372 28.2537 135° Southeast  Level Estimated
08:46 37.7391 28.3774 135° Southeast  Level Estimated
08:47 37.6409 28.5007 135° Southeast  Level Estimated
08:48 37.5425 28.6237 135° Southeast  Level Estimated
08:49 37.4440 28.7464 135° Southeast  Level Estimated
08:50 37.3453 28.8688 135° Southeast  Level Estimated
08:51 37.2464 28.9910 135° Southeast  Level Estimated
08:52 37.1474 29.1129 136° Southeast  Level Estimated
08:53 37.0482 29.2345 136° Southeast  Level Estimated
08:54 36.9489 29.3558 136° Southeast  Level Estimated
08:55 36.8495 29.4768 136° Southeast  Level Estimated
08:56 36.7500 29.5975 136° Southeast  Level Estimated
08:57 36.6503 29.7178 136° Southeast  Level Estimated
08:58 36.5505 29.8378 136° Southeast  Level Estimated
08:59 36.4506 29.9575 136° Southeast  Level Estimated
09:00 36.3506 30.0770 136° Southeast  Level Estimated
09:01 36.2505 30.1961 136° Southeast  Level Estimated
09:02 36.1502 30.3149 136° Southeast  Level Estimated
09:03 36.0498 30.4334 136° Southeast  Level Estimated
09:04 35.9493 30.5516 136° Southeast  Level Estimated
09:05 35.8487 30.6695 136° Southeast  Level Estimated
09:06 35.7480 30.7871 137° Southeast  Level Estimated
09:07 35.6471 30.9044 137° Southeast  Level Estimated
09:08 35.5462 31.0214 137° Southeast  Level Estimated
09:09 35.4451 31.1381 137° Southeast  Level Estimated
09:10 35.3440 31.2545 137° Southeast  Level Estimated
09:11 35.2427 31.3706 137° Southeast  Level Estimated
09:12 35.1413 31.4865 137° Southeast  Level Estimated
09:13 35.0398 31.6020 137° Southeast  Level Estimated
09:14 34.9381 31.7173 137° Southeast  Level Estimated
09:15 34.8364 31.8322 137° Southeast  Level Estimated
09:16 34.7346 31.9469 137° Southeast  Level Estimated
09:17 34.6326 32.0613 137° Southeast  Level Estimated
09:18 34.5306 32.1755 137° Southeast  Level Estimated
09:19 34.4285 32.2893 137° Southeast  Level Estimated
09:20 34.3262 32.4029 137° Southeast  Level Estimated
09:21 34.2238 32.5162 138° Southeast  Level Estimated
09:22 34.1214 32.6292 138° Southeast  Level Estimated
09:23 34.0188 32.7419 138° Southeast  Level Estimated
09:24 33.9161 32.8544 138° Southeast  Level Estimated
09:25 33.8134 32.9666 138° Southeast  Level Estimated
09:26 33.7105 33.0785 138° Southeast  Level Estimated
09:27 33.6075 33.1902 138° Southeast  Level Estimated
09:28 33.5044 33.3016 138° Southeast  Level Estimated
09:29 33.4012 33.4127 138° Southeast  Level Estimated
09:30 33.2980 33.5236 138° Southeast  Level Estimated
09:31 33.1946 33.6342 138° Southeast  Level Estimated
09:32 33.0911 33.7445 138° Southeast  Level Estimated
09:33 32.9875 33.8546 138° Southeast  Level Estimated
09:34 32.8839 33.9645 138° Southeast  Level Estimated
09:35 32.7801 34.0740 138° Southeast  Level Estimated
09:36 32.6763 34.1833 138° Southeast  Level Estimated
09:37 32.5723 34.2924 139° Southeast  Level Estimated
09:38 32.4683 34.4012 139° Southeast  Level Estimated
09:39 32.3642 34.5098 139° Southeast  Level Estimated
09:40 32.2599 34.6181 139° Southeast  Level Estimated
09:41 32.1556 34.7262 139° Southeast  Level Estimated
09:42 32.0512 34.8340 139° Southeast  Level Estimated
09:43 32.0095 34.8769 139° Southeast  Level Estimated
09:44 32.0095 34.8769 270° West  Level Estimated
09:45 32.0095 34.8769 270° West  Level Estimated
09:46 32.0095 34.8769 270° West  Level Estimated
09:47 32.0095 34.8769 270° West  Level Estimated
09:48 32.0095 34.8769 270° West  Level Estimated
09:49 32.0095 34.8769 270° West  Level Estimated
09:50 32.0095 34.8769 270° West  Level Estimated
09:51 32.0095 34.8769 270° West  Level Estimated
09:52 32.0095 34.8769 270° West  Level Estimated
09:53 32.0095 34.8769 270° West  Level Estimated
09:54 32.0095 34.8769 270° West  Level Estimated
09:55 32.0095 34.8769 270° West  Level Estimated
09:56 32.0095 34.8769 270° West  Level Estimated
09:57 32.0095 34.8769 270° West  Level Estimated
09:58 32.0095 34.8769 270° West  Level Estimated
09:59 32.0095 34.8769 270° West  Level Estimated
10:00 32.0095 34.8769 270° West  Level Estimated
10:01 32.0095 34.8769 270° West  Level Estimated
10:02 32.0095 34.8769 270° West  Level Estimated
10:03 32.0095 34.8769 270° West  Level Estimated